Airfield :
LOGIN :

Register | Disclaimer

   EN    FR    IT 

 










Legend :    VFR   Marginal VFR   IFR   Intensive IFR   Very Intensive IFR
Visi :
Ceiling :
>= 8 km
>= 3000ft
5 to 8 km
1000 to 3000 ft
1500m to 5 km
500 to 1000 ft
800 to 1500m
200 to 500 ft
< 800m
< 200 ft
Symbols :   Thunderstorms  Fog  Heavy snow  Heavy precipitations  Wind > 20 kt
SIGMETs :     Misc.  Thunderstorms  Icing  Turbulence  Mountain Waves  Volcanic Ashes







- Airport Elevation : 2001 ft
- IATA code : MAD


LEMD - Madrid

CURRENT METAR :
  • 181200Z 18003G13KT CAVOK 18/03 Q1020 NOSIG

EXPIRED METARs :
  • 181130Z 20003KT CAVOK 17/02 Q1021 NOSIG
  • 181100Z 35001KT CAVOK 16/02 Q1021 NOSIG
  • 181030Z 36003KT 330V030 CAVOK 13/02 Q1021 NOSIG
  • 181000Z 34005KT 310V010 CAVOK 11/02 Q1021 NOSIG
  • 180930Z 35006KT CAVOK 08/01 Q1021 NOSIG

TAF TAF LEMD
Valid from the 18 at 12:00 until the 19 at 18:00 UTC


181100Z 1812/1918 VRB05KT CAVOK TX20/1814Z TN00/1907Z
No reported NOTAMs for that airfield.



MET'MAP, your aeronautical weather chart ! - Copyright ORBIFLY December 2007 - Disclaimer

ORBIFLY MET'MAP TEAM :

Programming & Development : Alexandra Zaïnal
Concept & Development : Baudouin d'Aumeries
Co-Development & Prog : Marc-Olivier Méhu
Technical & hardware support : Manuel Goepfert

Contact : metmap@orbifly.com




SOURCES & CREDITS :

   NOAA